createdAt,value
2018-07-20T00:00:04.144Z,18.51
2018-07-20T00:01:04.268Z,18.48
2018-07-20T00:02:04.307Z,18.48
2018-07-20T00:03:04.189Z,18.39
2018-07-20T00:04:04.328Z,18.41
2018-07-20T00:05:04.236Z,18.30
2018-07-20T00:06:04.338Z,18.39
2018-07-20T00:07:04.254Z,18.34
2018-07-20T00:08:04.358Z,18.28
2018-07-20T00:09:04.270Z,18.30
2018-07-20T00:10:04.415Z,18.24
2018-07-20T00:11:04.459Z,18.23
2018-07-20T00:12:04.320Z,18.19
2018-07-20T00:13:04.458Z,18.09
2018-07-20T00:14:04.372Z,18.12
2018-07-20T00:15:04.366Z,18.05
2018-07-20T00:16:04.521Z,17.93
2018-07-20T00:17:04.403Z,17.75
2018-07-20T00:18:04.529Z,17.72
2018-07-20T00:19:04.542Z,17.79
2018-07-20T00:20:04.552Z,17.79
2018-07-20T00:21:04.435Z,17.75
2018-07-20T00:22:04.710Z,17.76
2018-07-20T00:23:04.481Z,17.75
2018-07-20T00:24:04.494Z,17.68
2018-07-20T00:25:04.501Z,17.75
2018-07-20T00:26:04.520Z,17.73
2018-07-20T00:27:04.527Z,17.75
2018-07-20T00:28:04.636Z,17.84
2018-07-20T00:29:04.595Z,17.80
2018-07-20T00:30:04.578Z,17.71
2018-07-20T00:31:04.625Z,17.78
2018-07-20T00:32:04.597Z,17.80
2018-07-20T00:33:04.737Z,17.75
2018-07-20T00:34:04.724Z,17.73
2018-07-20T00:35:04.653Z,17.65
2018-07-20T00:36:04.773Z,17.59
2018-07-20T00:37:04.664Z,17.52
2018-07-20T00:38:04.675Z,17.41
2018-07-20T00:39:04.790Z,17.41
2018-07-20T00:40:04.696Z,17.37
2018-07-20T00:41:04.717Z,17.30
2018-07-20T00:42:04.731Z,17.38
2018-07-20T00:43:04.737Z,17.32
2018-07-20T00:44:04.860Z,17.27
2018-07-20T00:45:04.764Z,17.19
2018-07-20T00:46:04.782Z,17.14
2018-07-20T00:47:04.801Z,17.24
2018-07-20T00:48:04.934Z,17.22
2018-07-20T00:49:04.845Z,17.20
2018-07-20T00:50:04.943Z,17.17
2018-07-20T00:51:04.973Z,17.19
2018-07-20T00:52:04.875Z,17.16
2018-07-20T00:53:04.877Z,17.31
2018-07-20T00:54:04.888Z,17.32
2018-07-20T00:55:04.922Z,17.37
2018-07-20T00:56:05.039Z,17.38
2018-07-20T00:57:05.058Z,17.39
2018-07-20T00:58:04.951Z,17.39
2018-07-20T00:59:05.088Z,17.46
2018-07-20T01:00:04.975Z,17.35
2018-07-20T01:01:05.093Z,17.37
2018-07-20T01:02:04.998Z,17.32
2018-07-20T01:03:05.021Z,17.35
2018-07-20T01:04:05.031Z,17.37
2018-07-20T01:05:05.051Z,17.38
2018-07-20T01:06:05.058Z,17.38
2018-07-20T01:07:05.310Z,17.28
2018-07-20T01:08:05.083Z,17.34
2018-07-20T01:09:05.220Z,17.35
2018-07-20T01:10:05.232Z,17.32
2018-07-20T01:11:05.248Z,17.28
2018-07-20T01:12:05.256Z,17.31
2018-07-20T01:13:05.395Z,17.27
2018-07-20T01:14:05.160Z,17.32
2018-07-20T01:15:05.185Z,17.35
2018-07-20T01:16:05.317Z,17.30
2018-07-20T01:17:05.324Z,17.35
2018-07-20T01:18:05.237Z,17.32
2018-07-20T01:19:05.375Z,17.34
2018-07-20T01:20:05.233Z,17.19
2018-07-20T01:21:05.267Z,17.24
2018-07-20T01:22:05.319Z,17.20
2018-07-20T01:23:05.287Z,17.19
2018-07-20T01:24:05.345Z,17.23
2018-07-20T01:25:05.308Z,17.19
2018-07-20T01:26:05.545Z,17.13
2018-07-20T01:27:05.461Z,17.05
2018-07-20T01:28:05.347Z,17.09
2018-07-20T01:29:05.356Z,17.04
2018-07-20T01:30:05.377Z,17.09
2018-07-20T01:31:05.485Z,17.07
2018-07-20T01:32:05.403Z,17.02
2018-07-20T01:33:05.431Z,17.01
2018-07-20T01:34:05.428Z,17.04
2018-07-20T01:35:05.442Z,17.05
2018-07-20T01:36:05.677Z,17.05
2018-07-20T01:37:05.457Z,17.02
2018-07-20T01:38:05.515Z,17.04
2018-07-20T01:39:05.489Z,16.98
2018-07-20T01:40:05.522Z,16.94
2018-07-20T01:41:05.614Z,16.95
2018-07-20T01:42:05.524Z,16.82
2018-07-20T01:43:05.552Z,16.82
2018-07-20T01:44:05.562Z,16.76
2018-07-20T01:45:05.699Z,16.76
2018-07-20T01:46:05.627Z,16.66
2018-07-20T01:47:05.603Z,16.66
2018-07-20T01:48:05.735Z,16.62
2018-07-20T01:49:05.626Z,16.64
2018-07-20T01:50:05.728Z,16.64
2018-07-20T01:51:05.667Z,16.62
2018-07-20T01:52:05.672Z,16.57
2018-07-20T01:53:05.727Z,16.55
2018-07-20T01:54:05.686Z,16.51
2018-07-20T01:55:05.864Z,16.54
2018-07-20T01:56:05.718Z,16.50
2018-07-20T01:57:05.850Z,16.49
2018-07-20T01:58:05.870Z,16.66
2018-07-20T01:59:05.880Z,16.65
2018-07-20T02:00:05.917Z,16.76
2018-07-20T02:01:05.789Z,16.77
2018-07-20T02:02:05.788Z,16.77
2018-07-20T02:03:05.808Z,16.87
2018-07-20T02:04:05.811Z,16.82
2018-07-20T02:05:05.868Z,16.73
2018-07-20T02:06:05.843Z,16.76
2018-07-20T02:07:05.884Z,16.83
2018-07-20T02:08:05.887Z,16.82
2018-07-20T02:09:05.908Z,16.79
2018-07-20T02:10:06.153Z,16.83
2018-07-20T02:11:06.034Z,16.79
2018-07-20T02:12:05.980Z,16.76
2018-07-20T02:13:06.065Z,16.83
2018-07-20T02:14:05.963Z,16.72
2018-07-20T02:15:06.086Z,16.72
2018-07-20T02:16:06.073Z,16.76
2018-07-20T02:17:05.994Z,16.76
2018-07-20T02:18:06.038Z,16.84
2018-07-20T02:19:06.135Z,16.68
2018-07-20T02:20:06.043Z,16.72
2018-07-20T02:21:06.132Z,16.65
2018-07-20T02:22:06.063Z,16.61
2018-07-20T02:23:06.059Z,16.64
2018-07-20T02:24:06.082Z,16.69
2018-07-20T02:25:06.214Z,16.64
2018-07-20T02:26:06.260Z,16.68
2018-07-20T02:27:06.135Z,16.68
2018-07-20T02:28:06.122Z,16.73
2018-07-20T02:29:06.173Z,16.64
2018-07-20T02:30:06.208Z,16.62
2018-07-20T02:31:06.217Z,16.62
2018-07-20T02:32:06.203Z,16.54
2018-07-20T02:33:06.197Z,16.55
2018-07-20T02:34:06.239Z,16.57
2018-07-20T02:35:06.241Z,16.54
2018-07-20T02:36:06.395Z,16.51
2018-07-20T02:37:06.253Z,16.47
2018-07-20T02:38:06.267Z,16.46
2018-07-20T02:39:06.266Z,16.50
2018-07-20T02:40:06.408Z,16.46
2018-07-20T02:41:06.301Z,16.50
2018-07-20T02:42:06.469Z,16.51
2018-07-20T02:43:06.319Z,16.50
2018-07-20T02:44:06.338Z,16.46
2018-07-20T02:45:06.365Z,16.47
2018-07-20T02:46:06.354Z,16.44
2018-07-20T02:47:06.518Z,16.36
2018-07-20T02:48:06.507Z,16.32
2018-07-20T02:49:06.394Z,16.21
2018-07-20T02:50:06.407Z,16.34
2018-07-20T02:51:06.420Z,16.21
2018-07-20T02:52:06.548Z,16.25
2018-07-20T02:53:06.576Z,16.13
2018-07-20T02:54:06.581Z,16.17
2018-07-20T02:55:06.472Z,16.26
2018-07-20T02:56:06.492Z,16.12
2018-07-20T02:57:06.658Z,16.21
2018-07-20T02:58:06.516Z,16.12
2018-07-20T02:59:06.525Z,16.17
2018-07-20T03:00:06.530Z,16.24
2018-07-20T03:01:06.550Z,16.16
2018-07-20T03:02:06.710Z,16.22
2018-07-20T03:03:06.578Z,16.22
2018-07-20T03:04:06.590Z,16.12
2018-07-20T03:05:06.605Z,16.12
2018-07-20T03:06:06.611Z,16.10
2018-07-20T03:07:06.847Z,16.12
2018-07-20T03:08:06.648Z,16.10
2018-07-20T03:09:06.716Z,16.06
2018-07-20T03:10:06.785Z,16.02
2018-07-20T03:11:06.800Z,16.13
2018-07-20T03:12:06.851Z,16.05
2018-07-20T03:13:06.701Z,16.03
2018-07-20T03:14:06.737Z,16.00
2018-07-20T03:15:06.724Z,15.98
2018-07-20T03:16:06.745Z,16.00
2018-07-20T03:17:06.794Z,16.03
2018-07-20T03:18:06.755Z,16.09
2018-07-20T03:19:06.779Z,16.09
2018-07-20T03:20:07.062Z,16.05
2018-07-20T03:21:06.887Z,16.05
2018-07-20T03:22:06.808Z,16.09
2018-07-20T03:23:06.872Z,16.09
2018-07-20T03:24:06.847Z,16.03
2018-07-20T03:25:07.026Z,16.02
2018-07-20T03:26:06.992Z,16.00
2018-07-20T03:27:07.154Z,16.02
2018-07-20T03:28:06.902Z,15.98
2018-07-20T03:29:06.896Z,15.88
2018-07-20T03:30:06.911Z,15.91
2018-07-20T03:31:06.921Z,15.90
2018-07-20T03:32:07.095Z,15.78
2018-07-20T03:33:06.943Z,15.83
2018-07-20T03:34:06.976Z,15.83
2018-07-20T03:35:06.967Z,15.73
2018-07-20T03:36:07.024Z,15.81
2018-07-20T03:37:07.116Z,15.81
2018-07-20T03:38:07.136Z,15.72
2018-07-20T03:39:07.040Z,15.75
2018-07-20T03:40:07.061Z,15.72
2018-07-20T03:41:07.046Z,15.72
2018-07-20T03:42:07.209Z,15.75
2018-07-20T03:43:07.086Z,15.78
2018-07-20T03:44:07.214Z,15.73
2018-07-20T03:45:07.223Z,15.63
2018-07-20T03:46:07.133Z,15.65
2018-07-20T03:47:07.179Z,15.76
2018-07-20T03:48:07.240Z,15.76
2018-07-20T03:49:07.191Z,15.72
2018-07-20T03:50:07.183Z,15.85
2018-07-20T03:51:07.175Z,15.90
2018-07-20T03:52:07.241Z,15.81
2018-07-20T03:53:07.307Z,15.85
2018-07-20T03:54:07.216Z,15.80
2018-07-20T03:55:07.224Z,15.84
2018-07-20T03:56:07.231Z,15.78
2018-07-20T03:57:07.249Z,15.81
2018-07-20T03:58:07.372Z,15.72
2018-07-20T03:59:07.267Z,15.72
2018-07-20T04:00:07.275Z,15.67
2018-07-20T04:01:07.298Z,15.63
2018-07-20T04:02:07.311Z,15.59
2018-07-20T04:03:07.472Z,15.57
2018-07-20T04:04:07.328Z,15.55
2018-07-20T04:05:07.353Z,15.59
2018-07-20T04:06:07.484Z,15.63
2018-07-20T04:07:07.371Z,15.59
2018-07-20T04:08:07.654Z,15.60
2018-07-20T04:09:07.438Z,15.63
2018-07-20T04:10:07.567Z,15.63
2018-07-20T04:11:07.540Z,15.57
2018-07-20T04:12:07.476Z,15.62
2018-07-20T04:13:07.589Z,15.62
2018-07-20T04:14:07.458Z,15.59
2018-07-20T04:15:07.477Z,15.63
2018-07-20T04:16:07.478Z,15.62
2018-07-20T04:17:07.482Z,15.65
2018-07-20T04:18:07.776Z,15.67
2018-07-20T04:19:07.505Z,15.54
2018-07-20T04:20:07.542Z,15.54
2018-07-20T04:21:07.592Z,15.59
2018-07-20T04:22:07.564Z,15.57
2018-07-20T04:23:07.703Z,15.60
2018-07-20T04:24:07.576Z,15.60
2018-07-20T04:25:07.593Z,15.66
2018-07-20T04:26:07.729Z,15.59
2018-07-20T04:27:07.612Z,15.62
2018-07-20T04:28:07.899Z,15.66
2018-07-20T04:29:07.757Z,15.59
2018-07-20T04:30:07.647Z,15.69
2018-07-20T04:31:07.706Z,15.67
2018-07-20T04:32:07.685Z,15.69
2018-07-20T04:33:07.833Z,15.63
2018-07-20T04:34:07.697Z,15.60
2018-07-20T04:35:07.713Z,15.65
2018-07-20T04:36:07.720Z,15.73
2018-07-20T04:37:07.859Z,15.65
2018-07-20T04:38:07.889Z,15.67
2018-07-20T04:39:07.754Z,15.65
2018-07-20T04:40:07.899Z,15.67
2018-07-20T04:41:07.904Z,15.73
2018-07-20T04:42:07.918Z,15.72
2018-07-20T04:43:07.998Z,15.66
2018-07-20T04:44:07.819Z,15.67
2018-07-20T04:45:07.844Z,15.67
2018-07-20T04:46:07.857Z,15.59
2018-07-20T04:47:07.905Z,15.62
2018-07-20T04:48:08.088Z,15.65
2018-07-20T04:49:07.891Z,15.63
2018-07-20T04:50:07.910Z,15.57
2018-07-20T04:51:08.027Z,15.54
2018-07-20T04:52:07.920Z,15.59
2018-07-20T04:53:08.032Z,15.51
2018-07-20T04:54:07.954Z,15.41
2018-07-20T04:55:08.083Z,15.45
2018-07-20T04:56:07.970Z,15.41
2018-07-20T04:57:07.976Z,15.48
2018-07-20T04:58:08.160Z,15.48
2018-07-20T04:59:07.998Z,15.48
2018-07-20T05:00:08.017Z,15.45
2018-07-20T05:01:08.026Z,15.45
2018-07-20T05:02:08.026Z,15.43
2018-07-20T05:03:08.153Z,15.43
2018-07-20T05:04:08.190Z,15.35
2018-07-20T05:05:08.074Z,15.29
2018-07-20T05:06:08.214Z,15.17
2018-07-20T05:07:08.094Z,15.12
2018-07-20T05:08:08.230Z,15.08
2018-07-20T05:09:08.278Z,15.04
2018-07-20T05:10:08.148Z,14.96
2018-07-20T05:11:08.166Z,14.96
2018-07-20T05:12:08.196Z,15.05
2018-07-20T05:13:08.173Z,14.87
2018-07-20T05:14:08.180Z,14.85
2018-07-20T05:15:08.465Z,14.82
2018-07-20T05:16:08.221Z,14.85
2018-07-20T05:17:08.212Z,14.73
2018-07-20T05:18:08.351Z,14.77
2018-07-20T05:19:08.241Z,14.70
2018-07-20T05:20:08.361Z,14.86
2018-07-20T05:21:08.270Z,14.68
2018-07-20T05:22:08.401Z,14.70
2018-07-20T05:23:08.411Z,14.74
2018-07-20T05:24:08.335Z,14.68
2018-07-20T05:25:08.326Z,14.68
2018-07-20T05:26:08.485Z,14.67
2018-07-20T05:27:08.337Z,14.77
2018-07-20T05:28:08.469Z,14.67
2018-07-20T05:29:08.357Z,14.62
2018-07-20T05:30:08.374Z,14.62
2018-07-20T05:31:08.391Z,14.66
2018-07-20T05:32:08.632Z,14.74
2018-07-20T05:33:08.400Z,14.68
2018-07-20T05:34:08.417Z,14.85
2018-07-20T05:35:08.429Z,14.77
2018-07-20T05:36:08.457Z,14.89
2018-07-20T05:37:08.576Z,14.96
2018-07-20T05:38:08.593Z,15.00
2018-07-20T05:39:08.601Z,14.99
2018-07-20T05:40:08.489Z,15.04
2018-07-20T05:41:08.510Z,14.94
2018-07-20T05:42:08.515Z,14.97
2018-07-20T05:43:08.627Z,15.08
2018-07-20T05:44:08.535Z,15.12
2018-07-20T05:45:08.547Z,15.07
2018-07-20T05:46:08.572Z,15.17
2018-07-20T05:47:08.573Z,15.15
2018-07-20T05:48:08.691Z,15.08
2018-07-20T05:49:08.722Z,15.15
2018-07-20T05:50:08.600Z,15.14
2018-07-20T05:51:08.627Z,15.22
2018-07-20T05:52:08.634Z,15.12
2018-07-20T05:53:08.745Z,15.18
2018-07-20T05:54:08.774Z,15.15
2018-07-20T05:55:08.668Z,15.14
2018-07-20T05:56:08.692Z,15.12
2018-07-20T05:57:08.694Z,15.17
2018-07-20T05:58:08.796Z,15.12
2018-07-20T05:59:08.712Z,15.15
2018-07-20T06:00:08.737Z,15.07
2018-07-20T06:01:08.738Z,15.17
2018-07-20T06:02:08.757Z,15.10
2018-07-20T06:03:08.882Z,15.02
2018-07-20T06:04:08.800Z,15.04
2018-07-20T06:05:08.782Z,15.10
2018-07-20T06:06:08.800Z,15.04
2018-07-20T06:07:08.817Z,15.07
2018-07-20T06:09:08.863Z,14.93
2018-07-20T06:10:08.834Z,14.97
2018-07-20T06:11:08.857Z,14.99
2018-07-20T06:12:08.867Z,14.92
2018-07-20T06:13:09.027Z,15.00
2018-07-20T06:14:08.944Z,14.94
2018-07-20T06:15:08.897Z,14.97
2018-07-20T06:16:08.934Z,14.97
2018-07-20T06:17:08.929Z,14.99
2018-07-20T06:18:09.082Z,14.85
2018-07-20T06:19:08.944Z,14.89
2018-07-20T06:20:08.965Z,14.79
2018-07-20T06:21:08.978Z,14.85
2018-07-20T06:22:09.122Z,14.82
2018-07-20T06:23:09.090Z,14.81
2018-07-20T06:24:09.002Z,14.81
2018-07-20T06:25:09.136Z,14.90
2018-07-20T06:26:09.029Z,14.82
2018-07-20T06:27:09.042Z,14.73
2018-07-20T06:28:09.324Z,14.85
2018-07-20T06:29:09.073Z,14.74
2018-07-20T06:30:09.074Z,14.79
2018-07-20T06:31:09.208Z,14.73
2018-07-20T06:32:09.100Z,14.71
2018-07-20T06:33:09.148Z,14.70
2018-07-20T06:34:09.224Z,14.73
2018-07-20T06:35:09.250Z,14.63
2018-07-20T06:36:09.151Z,14.68
2018-07-20T06:37:09.172Z,14.63
2018-07-20T06:38:09.177Z,14.63
2018-07-20T06:39:09.281Z,14.53
2018-07-20T06:40:09.311Z,14.55
2018-07-20T06:41:09.188Z,14.49
2018-07-20T06:42:09.333Z,14.38
2018-07-20T06:43:09.344Z,14.36
2018-07-20T06:44:09.465Z,14.25
2018-07-20T06:45:09.236Z,14.23
2018-07-20T06:46:09.254Z,14.26
2018-07-20T06:47:09.389Z,14.22
2018-07-20T06:48:09.272Z,14.22
2018-07-20T06:49:09.299Z,14.03
2018-07-20T06:50:09.443Z,14.11
2018-07-20T06:51:09.315Z,14.11
2018-07-20T06:52:09.323Z,14.11
2018-07-20T06:53:09.461Z,14.11
2018-07-20T06:54:09.359Z,14.11
2018-07-20T06:55:09.395Z,14.07
2018-07-20T06:56:09.533Z,14.13
2018-07-20T06:57:09.408Z,14.04
2018-07-20T06:58:09.394Z,14.08
2018-07-20T06:59:09.448Z,14.07
2018-07-20T07:00:09.409Z,14.13
2018-07-20T07:01:09.517Z,14.22
2018-07-20T07:02:09.567Z,14.22
2018-07-20T07:03:09.443Z,14.25
2018-07-20T07:04:09.464Z,14.20
2018-07-20T07:05:09.477Z,14.28
2018-07-20T07:06:09.709Z,14.23
2018-07-20T07:07:09.502Z,14.31
2018-07-20T07:08:09.519Z,14.33
2018-07-20T07:09:09.527Z,14.33
2018-07-20T07:10:09.526Z,14.33
2018-07-20T07:11:09.682Z,14.41
2018-07-20T07:12:09.549Z,14.28
2018-07-20T07:13:09.692Z,14.41
2018-07-20T07:14:09.584Z,14.33
2018-07-20T07:15:09.682Z,14.30
2018-07-20T07:16:09.742Z,14.26
2018-07-20T07:17:09.610Z,14.31
2018-07-20T07:18:09.658Z,14.25
2018-07-20T07:19:09.758Z,14.20
2018-07-20T07:20:09.658Z,14.25
2018-07-20T07:21:09.816Z,14.25
2018-07-20T07:22:09.668Z,14.23
2018-07-20T07:23:09.806Z,14.26
2018-07-20T07:24:09.692Z,14.28
2018-07-20T07:25:09.697Z,14.20
2018-07-20T07:26:09.809Z,14.25
2018-07-20T07:27:09.847Z,14.23
2018-07-20T07:28:09.737Z,14.23
2018-07-20T07:29:09.761Z,14.20
2018-07-20T07:30:09.756Z,14.23
2018-07-20T07:31:09.874Z,14.23
2018-07-20T07:32:09.773Z,14.12
2018-07-20T07:33:09.804Z,14.15
2018-07-20T07:34:09.821Z,14.13
2018-07-20T07:35:09.850Z,14.12
2018-07-20T07:36:10.025Z,14.07
2018-07-20T07:37:09.840Z,14.05
2018-07-20T07:38:09.840Z,14.16
2018-07-20T07:39:09.983Z,14.07
2018-07-20T07:40:09.864Z,14.12
2018-07-20T07:41:09.876Z,14.08
2018-07-20T07:42:10.047Z,13.98
2018-07-20T07:43:09.898Z,13.97
2018-07-20T07:44:09.931Z,13.89
2018-07-20T07:45:09.927Z,13.86
2018-07-20T07:46:09.995Z,13.91
2018-07-20T07:47:10.107Z,13.89
2018-07-20T07:48:09.971Z,13.93
2018-07-20T07:49:10.127Z,13.83
2018-07-20T07:50:10.107Z,13.87
2018-07-20T07:51:09.987Z,13.83
2018-07-20T07:52:10.006Z,13.75
2018-07-20T07:53:10.117Z,13.76
2018-07-20T07:54:10.038Z,13.78
2018-07-20T07:55:10.040Z,13.76
2018-07-20T07:56:10.059Z,13.80
2018-07-20T07:57:10.112Z,13.76
2018-07-20T07:58:10.127Z,13.85
2018-07-20T07:59:10.260Z,13.87
2018-07-20T08:00:10.105Z,13.73
2018-07-20T08:01:10.099Z,13.80
2018-07-20T08:02:10.222Z,13.76
2018-07-20T08:03:10.161Z,13.68
2018-07-20T08:04:10.159Z,13.70
2018-07-20T08:05:10.280Z,13.78
2018-07-20T08:06:10.167Z,13.73
2018-07-20T08:07:10.448Z,13.75
2018-07-20T08:08:10.194Z,13.65
2018-07-20T08:09:10.193Z,13.61
2018-07-20T08:10:10.381Z,13.62
2018-07-20T08:11:10.232Z,13.75
2018-07-20T08:12:10.392Z,13.71
2018-07-20T08:13:10.364Z,13.61
2018-07-20T08:14:10.305Z,13.67
2018-07-20T08:15:10.386Z,13.64
2018-07-20T08:16:10.276Z,13.70
2018-07-20T08:17:10.558Z,13.67
2018-07-20T08:18:10.330Z,13.67
2018-07-20T08:19:10.434Z,13.64
2018-07-20T08:20:10.318Z,13.67
2018-07-20T08:21:10.338Z,13.65
2018-07-20T08:22:10.489Z,13.60
2018-07-20T08:23:10.363Z,13.67
2018-07-20T08:24:10.371Z,13.62
2018-07-20T08:25:10.381Z,13.55
2018-07-20T08:26:10.398Z,13.50
2018-07-20T08:27:10.591Z,13.61
2018-07-20T08:28:10.533Z,13.61
2018-07-20T08:29:10.425Z,13.50
2018-07-20T08:30:10.443Z,13.65
2018-07-20T08:31:10.569Z,13.54
2018-07-20T08:32:10.612Z,13.62
2018-07-20T08:33:10.470Z,13.64
2018-07-20T08:34:10.519Z,13.58
2018-07-20T08:35:10.503Z,13.58
2018-07-20T08:36:10.492Z,13.60
2018-07-20T08:37:10.667Z,13.54
2018-07-20T08:38:10.512Z,13.49
2018-07-20T08:39:10.532Z,13.40
2018-07-20T08:40:10.547Z,13.43
2018-07-20T08:41:10.590Z,13.43
2018-07-20T08:42:10.788Z,13.49
2018-07-20T08:43:10.570Z,13.47
2018-07-20T08:44:10.591Z,13.39
2018-07-20T08:45:10.602Z,13.45
2018-07-20T08:46:10.609Z,13.47
2018-07-20T08:47:10.768Z,13.40
2018-07-20T08:48:10.629Z,13.36
2018-07-20T08:49:10.765Z,13.36
2018-07-20T08:50:10.652Z,13.33
2018-07-20T08:51:10.790Z,13.36
2018-07-20T08:52:10.775Z,13.46
2018-07-20T08:53:10.738Z,13.45
2018-07-20T08:54:10.774Z,13.33
2018-07-20T08:55:10.710Z,13.40
2018-07-20T08:56:10.739Z,13.37
2018-07-20T08:57:11.004Z,13.36
2018-07-20T08:58:10.736Z,13.40
2018-07-20T08:59:10.792Z,13.43
2018-07-20T09:00:10.783Z,13.42
2018-07-20T09:01:10.907Z,13.45
2018-07-20T09:02:10.964Z,13.47
2018-07-20T09:03:10.810Z,13.43
2018-07-20T09:04:10.820Z,13.42
2018-07-20T09:05:10.926Z,13.45
2018-07-20T09:06:10.962Z,13.39
2018-07-20T09:07:10.851Z,13.40
2018-07-20T09:08:10.846Z,13.40
2018-07-20T09:09:10.870Z,13.43
2018-07-20T09:10:10.987Z,13.40
2018-07-20T09:11:10.905Z,13.43
2018-07-20T09:12:10.889Z,13.46
2018-07-20T09:13:11.034Z,13.54
2018-07-20T09:14:10.919Z,13.47
2018-07-20T09:15:11.024Z,13.52
2018-07-20T09:16:11.069Z,13.52
2018-07-20T09:17:10.956Z,13.64
2018-07-20T09:18:11.088Z,13.58
2018-07-20T09:19:10.998Z,13.54
2018-07-20T09:20:11.111Z,13.57
2018-07-20T09:21:11.010Z,13.52
2018-07-20T09:22:11.132Z,13.57
2018-07-20T09:23:11.040Z,13.54
2018-07-20T09:24:11.047Z,13.55
2018-07-20T09:25:11.057Z,13.52
2018-07-20T09:26:11.333Z,13.52
2018-07-20T09:27:11.065Z,13.60
2018-07-20T09:28:11.119Z,13.68
2018-07-20T09:29:11.085Z,13.80
2018-07-20T09:30:11.222Z,13.76
2018-07-20T09:31:11.250Z,13.75
2018-07-20T09:32:11.125Z,13.76
2018-07-20T09:33:11.256Z,13.86
2018-07-20T09:34:11.246Z,13.86
2018-07-20T09:35:11.164Z,13.87
2018-07-20T09:36:11.312Z,13.87
2018-07-20T09:37:11.170Z,13.93
2018-07-20T09:38:11.182Z,13.86
2018-07-20T09:39:11.218Z,13.80
2018-07-20T09:40:11.211Z,13.86
2018-07-20T09:41:11.350Z,13.75
2018-07-20T09:42:11.276Z,13.76
2018-07-20T09:43:11.373Z,13.79
2018-07-20T09:44:11.383Z,13.65
2018-07-20T09:45:11.262Z,13.73
2018-07-20T09:46:11.385Z,13.73
2018-07-20T09:47:11.417Z,13.68
2018-07-20T09:48:11.429Z,13.78
2018-07-20T09:49:11.304Z,13.76
2018-07-20T09:50:11.322Z,13.78
2018-07-20T09:51:11.605Z,13.89
2018-07-20T09:52:11.362Z,13.86
2018-07-20T09:53:11.359Z,13.98
2018-07-20T09:54:11.363Z,14.12
2018-07-20T09:55:11.378Z,14.26
2018-07-20T09:56:11.547Z,14.28
2018-07-20T09:57:11.400Z,14.26
2018-07-20T09:58:11.427Z,14.41
2018-07-20T09:59:11.424Z,14.34
2018-07-20T10:00:11.459Z,14.37
2018-07-20T10:01:11.622Z,14.48
2018-07-20T10:02:11.470Z,14.37
2018-07-20T10:03:11.595Z,14.51
2018-07-20T10:04:11.478Z,14.62
2018-07-20T10:05:11.616Z,14.56
2018-07-20T10:06:11.604Z,14.61
2018-07-20T10:07:11.529Z,14.61
2018-07-20T10:08:11.514Z,14.67
2018-07-20T10:09:11.529Z,14.70
2018-07-20T10:10:11.568Z,14.68
2018-07-20T10:11:11.702Z,14.74
2018-07-20T10:12:11.572Z,14.78
2018-07-20T10:13:11.575Z,14.87
2018-07-20T10:14:11.715Z,15.07
2018-07-20T10:15:11.595Z,15.18
2018-07-20T10:16:11.723Z,15.35
2018-07-20T10:17:11.632Z,15.54
2018-07-20T10:18:11.638Z,15.66
2018-07-20T10:19:11.832Z,15.78
2018-07-20T10:20:11.656Z,15.91
2018-07-20T10:21:11.781Z,16.16
2018-07-20T10:22:11.705Z,16.34
2018-07-20T10:23:11.701Z,16.41
2018-07-20T10:24:11.760Z,16.57
2018-07-20T10:25:11.726Z,16.74
2018-07-20T10:26:11.854Z,16.86
2018-07-20T10:27:11.794Z,17.05
2018-07-20T10:28:11.758Z,17.12
2018-07-20T10:29:11.905Z,17.22
2018-07-20T10:30:11.806Z,17.39
2018-07-20T10:31:12.078Z,17.49
2018-07-20T10:32:11.821Z,17.68
2018-07-20T10:33:11.829Z,17.84
2018-07-20T10:34:11.981Z,17.98
2018-07-20T10:35:11.903Z,18.09
2018-07-20T10:36:12.119Z,18.15
2018-07-20T10:37:12.014Z,18.27
2018-07-20T10:38:11.895Z,18.49
2018-07-20T10:39:11.932Z,18.63
2018-07-20T10:40:11.936Z,18.70
2018-07-20T10:41:12.150Z,18.74
2018-07-20T10:42:11.974Z,18.97
2018-07-20T10:43:12.064Z,19.00
2018-07-20T10:44:11.996Z,19.12
2018-07-20T10:45:12.021Z,19.30
2018-07-20T10:46:12.177Z,19.39
2018-07-20T10:47:12.086Z,19.55
2018-07-20T10:48:12.065Z,19.63
2018-07-20T10:49:12.071Z,19.63
2018-07-20T10:50:12.089Z,19.77
2018-07-20T10:51:12.248Z,19.85
2018-07-20T10:52:12.169Z,19.93
2018-07-20T10:53:12.137Z,19.99
2018-07-20T10:54:12.204Z,20.17
2018-07-20T10:55:12.174Z,20.12
2018-07-20T10:56:12.325Z,20.26
2018-07-20T10:57:12.198Z,20.32
2018-07-20T10:58:12.215Z,20.42
2018-07-20T10:59:12.234Z,20.50
2018-07-20T11:00:12.258Z,20.66
2018-07-20T11:01:12.415Z,20.60
2018-07-20T11:02:12.407Z,20.74
2018-07-20T11:03:12.296Z,20.95
2018-07-20T11:04:12.318Z,21.08
2018-07-20T11:05:12.342Z,21.19
2018-07-20T11:06:12.510Z,21.35
2018-07-20T11:07:12.491Z,21.33
2018-07-20T11:08:12.380Z,21.45
2018-07-20T11:09:12.461Z,21.58
2018-07-20T11:10:12.465Z,21.60
2018-07-20T11:11:12.710Z,21.83
2018-07-20T11:12:12.456Z,21.88
2018-07-20T11:13:12.469Z,21.92
2018-07-20T11:14:12.538Z,22.07
2018-07-20T11:15:12.545Z,22.15
2018-07-20T11:16:12.726Z,22.21
2018-07-20T11:17:12.548Z,22.31
2018-07-20T11:18:12.568Z,22.47
2018-07-20T11:19:12.703Z,22.43
2018-07-20T11:20:12.724Z,22.59
2018-07-20T11:21:12.659Z,22.71
2018-07-20T11:22:12.762Z,22.81
2018-07-20T11:23:12.662Z,22.86
2018-07-20T11:24:12.673Z,23.13
2018-07-20T11:25:12.831Z,23.20
2018-07-20T11:26:12.704Z,23.47
2018-07-20T11:27:12.852Z,23.54
2018-07-20T11:28:12.743Z,23.70
2018-07-20T11:29:12.762Z,23.85
2018-07-20T11:30:12.952Z,24.09
2018-07-20T11:31:12.793Z,24.22
2018-07-20T11:32:12.816Z,24.36
2018-07-20T11:33:12.961Z,24.50
2018-07-20T11:34:12.853Z,24.63
2018-07-20T11:35:13.066Z,24.86
2018-07-20T11:36:13.019Z,24.88
2018-07-20T11:37:12.929Z,25.01
2018-07-20T11:38:13.055Z,25.15
2018-07-20T11:39:12.953Z,25.48
2018-07-20T11:40:13.012Z,25.73
2018-07-20T11:41:12.995Z,25.83
2018-07-20T11:42:13.014Z,26.06
2018-07-20T11:43:13.020Z,26.13
2018-07-20T11:44:13.046Z,26.23
2018-07-20T11:45:13.223Z,26.34
2018-07-20T11:46:13.081Z,26.29
2018-07-20T11:47:13.231Z,26.18
2018-07-20T11:48:13.126Z,26.22
2018-07-20T11:49:13.151Z,26.41
2018-07-20T11:50:13.321Z,26.42
2018-07-20T11:51:13.184Z,26.52
2018-07-20T11:52:13.324Z,26.46
2018-07-20T11:53:13.213Z,26.68
2018-07-20T11:54:13.237Z,26.89
2018-07-20T11:55:13.262Z,27.07
2018-07-20T11:56:13.466Z,27.08
2018-07-20T11:57:13.428Z,27.04
2018-07-20T11:58:13.322Z,26.92
2018-07-20T11:59:13.461Z,27.05
2018-07-20T12:00:13.486Z,27.01
2018-07-20T12:01:17.204Z,26.91
2018-07-20T12:02:13.522Z,26.91
2018-07-20T12:03:13.541Z,26.89
2018-07-20T12:04:13.433Z,26.78
2018-07-20T12:05:13.579Z,26.92
2018-07-20T12:06:13.475Z,26.93
2018-07-20T12:07:13.493Z,26.93
2018-07-20T12:08:13.527Z,27.07
2018-07-20T12:09:13.667Z,27.18
2018-07-20T12:10:13.561Z,27.22
2018-07-20T12:11:13.578Z,27.10
2018-07-20T12:12:13.870Z,27.13
2018-07-20T12:13:13.618Z,27.01
2018-07-20T12:14:13.639Z,27.08
2018-07-20T12:15:13.782Z,27.03
2018-07-20T12:16:13.798Z,27.00
2018-07-20T12:17:13.862Z,26.93
2018-07-20T12:18:13.714Z,26.92
2018-07-20T12:19:13.737Z,26.78
2018-07-20T12:20:13.764Z,26.68
2018-07-20T12:21:13.774Z,26.46
2018-07-20T12:22:13.952Z,26.34
2018-07-20T12:23:13.812Z,26.18
2018-07-20T12:24:13.829Z,25.93
2018-07-20T12:25:13.855Z,25.89
2018-07-20T12:26:13.996Z,25.78
2018-07-20T12:27:14.167Z,25.77
2018-07-20T12:28:13.925Z,25.63
2018-07-20T12:29:13.921Z,25.51
2018-07-20T12:30:14.067Z,25.31
2018-07-20T12:31:13.976Z,25.25
2018-07-20T12:32:14.258Z,25.18
2018-07-20T12:33:14.127Z,24.99
2018-07-20T12:34:14.033Z,24.93
2018-07-20T12:35:14.047Z,24.68
2018-07-20T12:36:14.067Z,24.43
2018-07-20T12:37:14.255Z,24.22
2018-07-20T12:38:14.100Z,24.13
2018-07-20T12:39:14.239Z,23.84
2018-07-20T12:41:14.209Z,23.79
2018-07-20T12:42:14.326Z,23.70
2018-07-20T12:43:14.184Z,23.66
2018-07-20T12:44:14.204Z,23.59
2018-07-20T12:45:14.250Z,23.70
2018-07-20T12:46:14.244Z,23.74
2018-07-20T12:47:14.535Z,23.71
2018-07-20T12:48:14.298Z,23.69
2018-07-20T12:49:14.315Z,23.59
2018-07-20T12:50:14.357Z,23.64
2018-07-20T12:51:14.340Z,23.59
2018-07-20T12:52:14.398Z,23.56
2018-07-20T12:53:14.366Z,23.58
2018-07-20T12:54:14.389Z,23.55